Rockland, ME

01:21 AM EDT del 21 Ottobre 2014 (GMT -0400)
Upper Park Street | Change Station
CLOSE
Current Station
Stazione meteo personale
Location: Rockland, ME
Altitudine: 79 ft
Stazioni meteo nelle vicinanze

Alt. 79 ft 44.10 °N, 69.13 °W | Updated 10 seconds ago

Molto nuvoloso
Molto nuvoloso
43.8 °F
Sembra 44 °F
N
1.6
Vento Variabile Vento da SO
Gusts 2.0 mph

Oggi
Massima -- | Minima -- °F
--% Possibilità di precip.
Ieri
Massima -- | Minima -- °F
Precip. -- in
6:58 AM 5:42 PM
Luna calante, 7% visible
Pressione 30.01 in
Visibilità 10.0 miglia
Nuvole Coperto 9000 ft
Raffreddamento del vento 44 °F
Punto di rugiada 38 °F
Umidità 78%
Piovosità 0.00 in
Spessore del manto nevoso Non disponibile.
Raggi UV 0 fuori da 12
Polline .30 fuori da 12
Qualità dell'aria Non disponibile.
Flu Activity Non disponibile.
METAR KRKD 210515Z AUTO 29003KT 10SM OVC090 05/03 A3001 RMK AO1

More Conditions Fewer Conditions

Pressione 30.01 in
Visibilità 10.0 miglia
Nuvole Coperto 9000 ft
Raffreddamento del vento 44 °F
Punto di rugiada 38 °F
Umidità 78%
Piovosità 0.00 in
Spessore del manto nevoso Non disponibile.
Raggi UV 0 fuori da 12
Polline .30 fuori da 12
Qualità dell'aria Non disponibile.
Flu Activity Non disponibile.
METAR KRKD 210515Z AUTO 29003KT 10SM OVC090 05/03 A3001 RMK AO1

More Conditions Fewer Conditions

10-Day Weather Forecast

Almanac

Astronomia

Oct. 21, 2014 Alba Tramonto
Ora attuale 06:58 EDT 17:42 EDT
Crepuscolo civile 06:29 EDT 18:12 EDT
Crepuscolo nautico 05:55 EDT 18:45 EDT
Crepuscolo astronomico 05:22 EDT 19:19 EDT
Luna 04:35 EDT 16:38 EDT
Estensione della luce visibile 11h 42m
Lunghezza del giorno
10h 44m
Tomorrow will be 2m 52s shorter.
Luna calante, 7% of the Moon is Illuminated
Oggi
Luna calante
Ott 23
Nuovo
Ott 30
Primo quarto
Nov 6
Luna piena
Nov 14
Ultimo quarto

Gli estremi di oggi

State Highs State Lows

Community

WunderPhotos

Upload Photos

1,763,612 foto caricate!

Nearby

Profondità neve

Stazione Profondità Altitudine
Non sono state evidenziate nuove nevicate

Attività sismica

Città  Distanza Mag. Data & Ora
Non sono state riportate attività sismiche nelle vicinanze.
Minimo Magnitudo Mostrato è 2.5.

Temperature delle acque costiere

Località Temperatura
Bar Harbor, ME 54.0 °F
Portland, ME 55.9 °F

Stazioni meteo nelle vicinanze